sensor_id;sensor_type;location;lat;lon;timestamp;P1;durP1;ratioP1;P2;durP2;ratioP2
24751;SDS011;27246;52.376;4.628;2023-09-30T00:02:32;6.38;;;3.22;;
24751;SDS011;27246;52.376;4.628;2023-09-30T00:07:34;6.22;;;3.30;;
24751;SDS011;27246;52.376;4.628;2023-09-30T00:12:36;6.85;;;3.92;;
24751;SDS011;27246;52.376;4.628;2023-09-30T00:17:38;10.13;;;4.47;;
24751;SDS011;27246;52.376;4.628;2023-09-30T00:22:44;7.60;;;4.18;;
24751;SDS011;27246;52.376;4.628;2023-09-30T00:27:46;7.03;;;4.53;;
24751;SDS011;27246;52.376;4.628;2023-09-30T00:32:48;9.07;;;3.15;;
24751;SDS011;27246;52.376;4.628;2023-09-30T00:37:50;6.90;;;3.75;;
24751;SDS011;27246;52.376;4.628;2023-09-30T00:42:52;7.10;;;2.55;;
24751;SDS011;27246;52.376;4.628;2023-09-30T00:47:54;7.70;;;3.67;;
24751;SDS011;27246;52.376;4.628;2023-09-30T00:52:57;8.38;;;3.67;;
24751;SDS011;27246;52.376;4.628;2023-09-30T00:57:59;8.52;;;3.30;;
24751;SDS011;27246;52.376;4.628;2023-09-30T01:03:01;8.23;;;3.80;;
24751;SDS011;27246;52.376;4.628;2023-09-30T01:08:05;5.22;;;2.67;;
24751;SDS011;27246;52.376;4.628;2023-09-30T01:13:07;7.13;;;3.42;;
24751;SDS011;27246;52.376;4.628;2023-09-30T01:18:09;6.75;;;3.80;;
24751;SDS011;27246;52.376;4.628;2023-09-30T01:23:14;7.10;;;3.08;;
24751;SDS011;27246;52.376;4.628;2023-09-30T01:28:15;10.10;;;3.38;;
24751;SDS011;27246;52.376;4.628;2023-09-30T01:33:17;6.90;;;3.13;;
24751;SDS011;27246;52.376;4.628;2023-09-30T01:38:20;5.68;;;3.08;;
24751;SDS011;27246;52.376;4.628;2023-09-30T01:43:22;5.78;;;3.10;;
24751;SDS011;27246;52.376;4.628;2023-09-30T01:48:23;6.65;;;3.30;;
24751;SDS011;27246;52.376;4.628;2023-09-30T01:53:26;8.85;;;3.85;;
24751;SDS011;27246;52.376;4.628;2023-09-30T01:58:27;10.70;;;3.75;;
24751;SDS011;27246;52.376;4.628;2023-09-30T02:03:29;5.78;;;3.50;;
24751;SDS011;27246;52.376;4.628;2023-09-30T02:08:31;9.48;;;5.30;;
24751;SDS011;27246;52.376;4.628;2023-09-30T02:13:33;9.90;;;4.15;;
24751;SDS011;27246;52.376;4.628;2023-09-30T02:18:36;9.52;;;3.45;;
24751;SDS011;27246;52.376;4.628;2023-09-30T02:23:38;7.57;;;3.95;;
24751;SDS011;27246;52.376;4.628;2023-09-30T02:28:40;7.03;;;3.90;;
24751;SDS011;27246;52.376;4.628;2023-09-30T02:33:46;7.20;;;4.32;;
24751;SDS011;27246;52.376;4.628;2023-09-30T02:38:48;8.05;;;4.60;;
24751;SDS011;27246;52.376;4.628;2023-09-30T02:43:50;8.70;;;4.88;;
24751;SDS011;27246;52.376;4.628;2023-09-30T02:48:51;8.70;;;5.20;;
24751;SDS011;27246;52.376;4.628;2023-09-30T02:53:53;6.40;;;4.68;;
24751;SDS011;27246;52.376;4.628;2023-09-30T02:58:56;8.13;;;4.40;;
24751;SDS011;27246;52.376;4.628;2023-09-30T03:04:02;9.15;;;5.13;;
24751;SDS011;27246;52.376;4.628;2023-09-30T03:14:13;10.65;;;5.28;;
24751;SDS011;27246;52.376;4.628;2023-09-30T03:19:15;9.50;;;4.63;;
24751;SDS011;27246;52.376;4.628;2023-09-30T03:24:17;10.15;;;5.53;;
24751;SDS011;27246;52.376;4.628;2023-09-30T03:29:19;8.40;;;4.70;;
24751;SDS011;27246;52.376;4.628;2023-09-30T03:34:21;7.43;;;5.35;;
24751;SDS011;27246;52.376;4.628;2023-09-30T03:39:23;8.73;;;5.55;;
24751;SDS011;27246;52.376;4.628;2023-09-30T03:44:28;7.57;;;4.85;;
24751;SDS011;27246;52.376;4.628;2023-09-30T03:49:30;9.55;;;4.30;;
24751;SDS011;27246;52.376;4.628;2023-09-30T03:54:32;7.03;;;4.50;;
24751;SDS011;27246;52.376;4.628;2023-09-30T03:59:34;7.90;;;4.03;;
24751;SDS011;27246;52.376;4.628;2023-09-30T04:04:36;9.82;;;5.30;;
24751;SDS011;27246;52.376;4.628;2023-09-30T04:09:38;9.68;;;4.43;;
24751;SDS011;27246;52.376;4.628;2023-09-30T04:14:42;7.22;;;4.78;;
24751;SDS011;27246;52.376;4.628;2023-09-30T04:19:44;8.23;;;4.65;;
24751;SDS011;27246;52.376;4.628;2023-09-30T04:24:47;7.53;;;4.82;;
24751;SDS011;27246;52.376;4.628;2023-09-30T04:29:54;7.72;;;4.25;;
24751;SDS011;27246;52.376;4.628;2023-09-30T04:34:56;7.40;;;4.43;;
24751;SDS011;27246;52.376;4.628;2023-09-30T04:39:57;8.93;;;4.32;;
24751;SDS011;27246;52.376;4.628;2023-09-30T04:45:01;8.65;;;3.80;;
24751;SDS011;27246;52.376;4.628;2023-09-30T04:50:07;7.43;;;4.07;;
24751;SDS011;27246;52.376;4.628;2023-09-30T04:55:09;8.70;;;4.25;;
24751;SDS011;27246;52.376;4.628;2023-09-30T05:00:17;10.40;;;4.25;;
24751;SDS011;27246;52.376;4.628;2023-09-30T05:05:27;7.53;;;4.25;;
24751;SDS011;27246;52.376;4.628;2023-09-30T05:10:30;9.43;;;4.43;;
24751;SDS011;27246;52.376;4.628;2023-09-30T05:15:31;10.27;;;4.32;;
24751;SDS011;27246;52.376;4.628;2023-09-30T05:20:34;9.60;;;4.05;;
24751;SDS011;27246;52.376;4.628;2023-09-30T05:25:38;6.88;;;4.03;;
24751;SDS011;27246;52.376;4.628;2023-09-30T05:30:41;8.80;;;3.70;;
24751;SDS011;27246;52.376;4.628;2023-09-30T05:35:45;8.90;;;3.88;;
24751;SDS011;27246;52.376;4.628;2023-09-30T05:40:47;7.82;;;4.20;;
24751;SDS011;27246;52.376;4.628;2023-09-30T05:45:50;7.75;;;4.60;;
24751;SDS011;27246;52.376;4.628;2023-09-30T05:50:59;7.07;;;4.73;;
24751;SDS011;27246;52.376;4.628;2023-09-30T05:56:00;9.18;;;4.90;;
24751;SDS011;27246;52.376;4.628;2023-09-30T06:01:07;7.10;;;4.78;;
24751;SDS011;27246;52.376;4.628;2023-09-30T06:06:14;6.93;;;4.95;;
24751;SDS011;27246;52.376;4.628;2023-09-30T06:11:17;10.10;;;4.55;;
24751;SDS011;27246;52.376;4.628;2023-09-30T06:16:20;7.63;;;4.38;;
24751;SDS011;27246;52.376;4.628;2023-09-30T06:21:24;27.58;;;5.78;;
24751;SDS011;27246;52.376;4.628;2023-09-30T06:26:30;10.95;;;5.18;;
24751;SDS011;27246;52.376;4.628;2023-09-30T06:31:32;12.43;;;6.43;;
24751;SDS011;27246;52.376;4.628;2023-09-30T06:36:35;9.20;;;4.20;;
24751;SDS011;27246;52.376;4.628;2023-09-30T06:41:39;7.85;;;4.45;;
24751;SDS011;27246;52.376;4.628;2023-09-30T06:46:45;12.38;;;5.25;;
24751;SDS011;27246;52.376;4.628;2023-09-30T06:51:47;10.77;;;5.22;;
24751;SDS011;27246;52.376;4.628;2023-09-30T06:56:49;9.65;;;5.25;;
24751;SDS011;27246;52.376;4.628;2023-09-30T07:01:50;9.65;;;4.93;;
24751;SDS011;27246;52.376;4.628;2023-09-30T07:06:53;11.52;;;5.28;;
24751;SDS011;27246;52.376;4.628;2023-09-30T07:11:54;10.77;;;5.75;;
24751;SDS011;27246;52.376;4.628;2023-09-30T07:16:57;8.38;;;5.45;;
24751;SDS011;27246;52.376;4.628;2023-09-30T07:21:59;11.65;;;6.68;;
24751;SDS011;27246;52.376;4.628;2023-09-30T07:27:05;10.43;;;5.60;;
24751;SDS011;27246;52.376;4.628;2023-09-30T07:32:27;10.27;;;5.35;;
24751;SDS011;27246;52.376;4.628;2023-09-30T07:37:29;9.90;;;5.38;;
24751;SDS011;27246;52.376;4.628;2023-09-30T07:42:31;13.57;;;5.68;;
24751;SDS011;27246;52.376;4.628;2023-09-30T07:47:35;11.77;;;5.30;;
24751;SDS011;27246;52.376;4.628;2023-09-30T07:52:37;11.50;;;5.13;;
24751;SDS011;27246;52.376;4.628;2023-09-30T07:57:42;13.48;;;5.70;;
24751;SDS011;27246;52.376;4.628;2023-09-30T08:02:45;9.15;;;5.40;;
24751;SDS011;27246;52.376;4.628;2023-09-30T08:07:47;11.80;;;4.88;;
24751;SDS011;27246;52.376;4.628;2023-09-30T08:12:48;8.63;;;3.90;;
24751;SDS011;27246;52.376;4.628;2023-09-30T08:17:51;10.23;;;4.43;;
24751;SDS011;27246;52.376;4.628;2023-09-30T08:22:53;12.05;;;4.47;;
24751;SDS011;27246;52.376;4.628;2023-09-30T08:27:54;8.27;;;4.25;;
24751;SDS011;27246;52.376;4.628;2023-09-30T08:32:56;5.72;;;3.17;;
24751;SDS011;27246;52.376;4.628;2023-09-30T08:37:58;13.18;;;4.43;;
24751;SDS011;27246;52.376;4.628;2023-09-30T08:43:00;8.93;;;3.40;;
24751;SDS011;27246;52.376;4.628;2023-09-30T08:48:05;8.35;;;3.72;;
24751;SDS011;27246;52.376;4.628;2023-09-30T08:53:09;7.40;;;3.08;;
24751;SDS011;27246;52.376;4.628;2023-09-30T08:58:13;9.60;;;3.60;;
24751;SDS011;27246;52.376;4.628;2023-09-30T09:03:15;11.50;;;3.92;;
24751;SDS011;27246;52.376;4.628;2023-09-30T09:08:19;7.85;;;3.40;;
24751;SDS011;27246;52.376;4.628;2023-09-30T09:13:25;8.07;;;3.45;;
24751;SDS011;27246;52.376;4.628;2023-09-30T09:18:31;7.20;;;2.63;;
24751;SDS011;27246;52.376;4.628;2023-09-30T09:23:38;8.57;;;2.80;;
24751;SDS011;27246;52.376;4.628;2023-09-30T09:28:41;6.20;;;2.88;;
24751;SDS011;27246;52.376;4.628;2023-09-30T09:33:44;14.25;;;3.45;;
24751;SDS011;27246;52.376;4.628;2023-09-30T09:38:47;4.18;;;1.75;;
24751;SDS011;27246;52.376;4.628;2023-09-30T09:43:49;10.63;;;2.30;;
24751;SDS011;27246;52.376;4.628;2023-09-30T09:48:52;5.78;;;1.83;;
24751;SDS011;27246;52.376;4.628;2023-09-30T09:53:55;5.18;;;1.85;;
24751;SDS011;27246;52.376;4.628;2023-09-30T09:58:57;8.15;;;1.75;;
24751;SDS011;27246;52.376;4.628;2023-09-30T10:03:59;5.22;;;1.10;;
24751;SDS011;27246;52.376;4.628;2023-09-30T10:09:01;7.75;;;2.78;;
24751;SDS011;27246;52.376;4.628;2023-09-30T10:14:03;5.95;;;2.00;;
24751;SDS011;27246;52.376;4.628;2023-09-30T10:19:12;8.32;;;2.35;;
24751;SDS011;27246;52.376;4.628;2023-09-30T10:29:39;8.95;;;2.08;;
24751;SDS011;27246;52.376;4.628;2023-09-30T10:34:49;6.60;;;2.03;;
24751;SDS011;27246;52.376;4.628;2023-09-30T10:39:54;6.28;;;1.67;;
24751;SDS011;27246;52.376;4.628;2023-09-30T10:44:57;5.88;;;1.95;;
24751;SDS011;27246;52.376;4.628;2023-09-30T10:49:58;6.78;;;2.05;;
24751;SDS011;27246;52.376;4.628;2023-09-30T10:55:03;7.07;;;1.60;;
24751;SDS011;27246;52.376;4.628;2023-09-30T11:00:11;5.45;;;2.13;;
24751;SDS011;27246;52.376;4.628;2023-09-30T11:05:15;4.72;;;1.40;;
24751;SDS011;27246;52.376;4.628;2023-09-30T11:10:17;5.40;;;1.50;;
24751;SDS011;27246;52.376;4.628;2023-09-30T11:15:20;6.20;;;2.03;;
24751;SDS011;27246;52.376;4.628;2023-09-30T11:20:21;8.52;;;1.77;;
24751;SDS011;27246;52.376;4.628;2023-09-30T11:25:23;9.13;;;2.10;;
24751;SDS011;27246;52.376;4.628;2023-09-30T11:30:26;10.60;;;3.83;;
24751;SDS011;27246;52.376;4.628;2023-09-30T11:35:28;5.53;;;2.03;;
24751;SDS011;27246;52.376;4.628;2023-09-30T11:40:30;7.03;;;2.38;;
24751;SDS011;27246;52.376;4.628;2023-09-30T11:45:31;9.57;;;2.00;;
24751;SDS011;27246;52.376;4.628;2023-09-30T11:50:45;5.38;;;1.40;;
24751;SDS011;27246;52.376;4.628;2023-09-30T11:55:51;9.50;;;1.98;;
24751;SDS011;27246;52.376;4.628;2023-09-30T12:00:57;7.47;;;1.65;;
24751;SDS011;27246;52.376;4.628;2023-09-30T12:06:01;7.00;;;1.55;;
24751;SDS011;27246;52.376;4.628;2023-09-30T12:11:03;7.65;;;2.47;;
24751;SDS011;27246;52.376;4.628;2023-09-30T12:16:08;7.70;;;2.20;;
24751;SDS011;27246;52.376;4.628;2023-09-30T12:21:11;9.15;;;2.17;;
24751;SDS011;27246;52.376;4.628;2023-09-30T12:26:21;7.63;;;2.13;;
24751;SDS011;27246;52.376;4.628;2023-09-30T12:31:23;6.55;;;2.08;;
24751;SDS011;27246;52.376;4.628;2023-09-30T12:36:27;6.47;;;1.98;;
24751;SDS011;27246;52.376;4.628;2023-09-30T12:41:29;7.05;;;1.95;;
24751;SDS011;27246;52.376;4.628;2023-09-30T12:46:34;8.00;;;2.40;;
24751;SDS011;27246;52.376;4.628;2023-09-30T12:51:38;9.48;;;2.45;;
24751;SDS011;27246;52.376;4.628;2023-09-30T12:56:43;6.97;;;2.65;;
24751;SDS011;27246;52.376;4.628;2023-09-30T13:01:46;5.20;;;2.15;;
24751;SDS011;27246;52.376;4.628;2023-09-30T13:06:49;6.28;;;1.80;;
24751;SDS011;27246;52.376;4.628;2023-09-30T13:11:52;9.10;;;2.28;;
24751;SDS011;27246;52.376;4.628;2023-09-30T13:16:53;9.15;;;2.30;;
24751;SDS011;27246;52.376;4.628;2023-09-30T13:21:55;6.10;;;1.80;;
24751;SDS011;27246;52.376;4.628;2023-09-30T13:26:57;8.13;;;2.35;;
24751;SDS011;27246;52.376;4.628;2023-09-30T13:31:59;5.35;;;1.85;;
24751;SDS011;27246;52.376;4.628;2023-09-30T13:37:04;7.35;;;1.80;;
24751;SDS011;27246;52.376;4.628;2023-09-30T13:42:06;8.63;;;2.70;;
24751;SDS011;27246;52.376;4.628;2023-09-30T13:47:08;5.22;;;2.15;;
24751;SDS011;27246;52.376;4.628;2023-09-30T13:52:11;6.30;;;1.80;;
24751;SDS011;27246;52.376;4.628;2023-09-30T13:57:16;7.20;;;2.33;;
24751;SDS011;27246;52.376;4.628;2023-09-30T14:02:18;9.35;;;2.75;;
24751;SDS011;27246;52.376;4.628;2023-09-30T14:07:21;6.35;;;2.35;;
24751;SDS011;27246;52.376;4.628;2023-09-30T14:12:23;10.07;;;2.60;;
24751;SDS011;27246;52.376;4.628;2023-09-30T14:17:24;6.55;;;2.13;;
24751;SDS011;27246;52.376;4.628;2023-09-30T14:22:30;9.38;;;2.20;;
24751;SDS011;27246;52.376;4.628;2023-09-30T14:27:32;7.40;;;1.95;;
24751;SDS011;27246;52.376;4.628;2023-09-30T14:32:33;7.78;;;1.80;;
24751;SDS011;27246;52.376;4.628;2023-09-30T14:37:36;6.88;;;1.80;;
24751;SDS011;27246;52.376;4.628;2023-09-30T14:42:37;9.48;;;3.15;;
24751;SDS011;27246;52.376;4.628;2023-09-30T14:47:39;6.63;;;1.90;;
24751;SDS011;27246;52.376;4.628;2023-09-30T14:52:42;9.63;;;2.15;;
24751;SDS011;27246;52.376;4.628;2023-09-30T14:57:44;5.72;;;2.15;;
24751;SDS011;27246;52.376;4.628;2023-09-30T15:02:46;7.15;;;1.63;;
24751;SDS011;27246;52.376;4.628;2023-09-30T15:07:48;8.70;;;2.65;;
24751;SDS011;27246;52.376;4.628;2023-09-30T15:12:49;11.30;;;1.98;;
24751;SDS011;27246;52.376;4.628;2023-09-30T15:17:51;4.82;;;1.73;;
24751;SDS011;27246;52.376;4.628;2023-09-30T15:22:54;5.85;;;1.42;;
24751;SDS011;27246;52.376;4.628;2023-09-30T15:27:56;6.43;;;1.75;;
24751;SDS011;27246;52.376;4.628;2023-09-30T15:32:59;8.18;;;1.50;;
24751;SDS011;27246;52.376;4.628;2023-09-30T15:38:01;6.90;;;1.60;;
24751;SDS011;27246;52.376;4.628;2023-09-30T15:43:03;4.57;;;1.30;;
24751;SDS011;27246;52.376;4.628;2023-09-30T15:48:05;6.30;;;1.75;;
24751;SDS011;27246;52.376;4.628;2023-09-30T15:53:07;8.07;;;1.90;;
24751;SDS011;27246;52.376;4.628;2023-09-30T15:58:08;5.93;;;1.70;;
24751;SDS011;27246;52.376;4.628;2023-09-30T16:03:13;5.35;;;1.58;;
24751;SDS011;27246;52.376;4.628;2023-09-30T16:08:17;4.75;;;1.40;;
24751;SDS011;27246;52.376;4.628;2023-09-30T16:13:20;8.45;;;2.03;;
24751;SDS011;27246;52.376;4.628;2023-09-30T16:18:22;5.30;;;1.70;;
24751;SDS011;27246;52.376;4.628;2023-09-30T16:23:24;8.88;;;2.10;;
24751;SDS011;27246;52.376;4.628;2023-09-30T16:28:25;7.03;;;1.85;;
24751;SDS011;27246;52.376;4.628;2023-09-30T16:33:28;4.53;;;1.50;;
24751;SDS011;27246;52.376;4.628;2023-09-30T16:38:29;9.73;;;2.88;;
24751;SDS011;27246;52.376;4.628;2023-09-30T16:43:31;8.45;;;2.95;;
24751;SDS011;27246;52.376;4.628;2023-09-30T16:48:33;6.78;;;1.70;;
24751;SDS011;27246;52.376;4.628;2023-09-30T16:53:35;7.93;;;2.70;;
24751;SDS011;27246;52.376;4.628;2023-09-30T16:58:40;8.65;;;1.95;;
24751;SDS011;27246;52.376;4.628;2023-09-30T17:03:42;6.07;;;1.85;;
24751;SDS011;27246;52.376;4.628;2023-09-30T17:08:45;6.80;;;1.90;;
24751;SDS011;27246;52.376;4.628;2023-09-30T17:13:46;8.25;;;2.72;;
24751;SDS011;27246;52.376;4.628;2023-09-30T17:18:49;12.48;;;2.92;;
24751;SDS011;27246;52.376;4.628;2023-09-30T17:23:51;7.65;;;2.47;;
24751;SDS011;27246;52.376;4.628;2023-09-30T17:28:53;6.28;;;2.35;;
24751;SDS011;27246;52.376;4.628;2023-09-30T17:33:54;7.22;;;2.22;;
24751;SDS011;27246;52.376;4.628;2023-09-30T17:38:56;8.27;;;2.30;;
24751;SDS011;27246;52.376;4.628;2023-09-30T17:43:58;6.78;;;1.90;;
24751;SDS011;27246;52.376;4.628;2023-09-30T17:49:00;8.25;;;2.40;;
24751;SDS011;27246;52.376;4.628;2023-09-30T17:54:02;9.18;;;3.05;;
24751;SDS011;27246;52.376;4.628;2023-09-30T17:59:04;8.98;;;2.90;;
24751;SDS011;27246;52.376;4.628;2023-09-30T18:04:08;9.88;;;2.95;;
24751;SDS011;27246;52.376;4.628;2023-09-30T18:09:12;8.88;;;2.92;;
24751;SDS011;27246;52.376;4.628;2023-09-30T18:14:14;5.65;;;2.85;;
24751;SDS011;27246;52.376;4.628;2023-09-30T18:19:17;7.38;;;2.78;;
24751;SDS011;27246;52.376;4.628;2023-09-30T18:24:22;6.32;;;2.85;;
24751;SDS011;27246;52.376;4.628;2023-09-30T18:29:23;9.02;;;3.20;;
24751;SDS011;27246;52.376;4.628;2023-09-30T18:34:34;8.23;;;3.05;;
24751;SDS011;27246;52.376;4.628;2023-09-30T18:39:36;9.10;;;3.13;;
24751;SDS011;27246;52.376;4.628;2023-09-30T18:44:41;6.93;;;2.97;;
24751;SDS011;27246;52.376;4.628;2023-09-30T18:49:44;9.40;;;3.15;;
24751;SDS011;27246;52.376;4.628;2023-09-30T18:54:46;7.38;;;3.13;;
24751;SDS011;27246;52.376;4.628;2023-09-30T18:59:50;6.22;;;2.83;;
24751;SDS011;27246;52.376;4.628;2023-09-30T19:04:52;8.70;;;3.90;;
24751;SDS011;27246;52.376;4.628;2023-09-30T19:09:54;9.57;;;3.28;;
24751;SDS011;27246;52.376;4.628;2023-09-30T19:14:56;11.48;;;3.58;;
24751;SDS011;27246;52.376;4.628;2023-09-30T19:19:57;11.90;;;3.53;;
24751;SDS011;27246;52.376;4.628;2023-09-30T19:24:59;20.42;;;12.48;;
24751;SDS011;27246;52.376;4.628;2023-09-30T19:30:01;9.05;;;3.53;;
24751;SDS011;27246;52.376;4.628;2023-09-30T19:35:03;11.05;;;4.30;;
24751;SDS011;27246;52.376;4.628;2023-09-30T19:40:05;9.15;;;4.20;;
24751;SDS011;27246;52.376;4.628;2023-09-30T19:45:07;11.00;;;5.10;;
24751;SDS011;27246;52.376;4.628;2023-09-30T19:50:10;9.73;;;5.28;;
24751;SDS011;27246;52.376;4.628;2023-09-30T19:55:14;12.80;;;5.13;;
24751;SDS011;27246;52.376;4.628;2023-09-30T20:00:16;10.02;;;5.07;;
24751;SDS011;27246;52.376;4.628;2023-09-30T20:05:19;8.75;;;4.65;;
24751;SDS011;27246;52.376;4.628;2023-09-30T20:10:21;7.18;;;4.40;;
24751;SDS011;27246;52.376;4.628;2023-09-30T20:15:23;9.60;;;5.63;;
24751;SDS011;27246;52.376;4.628;2023-09-30T20:20:26;8.00;;;4.90;;
24751;SDS011;27246;52.376;4.628;2023-09-30T20:25:28;13.10;;;4.82;;
24751;SDS011;27246;52.376;4.628;2023-09-30T20:30:31;10.70;;;4.70;;
24751;SDS011;27246;52.376;4.628;2023-09-30T20:35:35;9.75;;;5.30;;
24751;SDS011;27246;52.376;4.628;2023-09-30T20:40:40;11.05;;;4.78;;
24751;SDS011;27246;52.376;4.628;2023-09-30T20:45:43;9.50;;;5.43;;
24751;SDS011;27246;52.376;4.628;2023-09-30T20:50:45;12.32;;;6.05;;
24751;SDS011;27246;52.376;4.628;2023-09-30T20:55:47;9.48;;;4.50;;
24751;SDS011;27246;52.376;4.628;2023-09-30T21:00:48;11.15;;;5.80;;
24751;SDS011;27246;52.376;4.628;2023-09-30T21:05:50;15.50;;;6.43;;
24751;SDS011;27246;52.376;4.628;2023-09-30T21:10:54;9.18;;;5.15;;
24751;SDS011;27246;52.376;4.628;2023-09-30T21:15:56;14.45;;;5.85;;
24751;SDS011;27246;52.376;4.628;2023-09-30T21:20:58;9.93;;;4.82;;
24751;SDS011;27246;52.376;4.628;2023-09-30T21:25:59;14.05;;;4.60;;
24751;SDS011;27246;52.376;4.628;2023-09-30T21:31:01;11.45;;;5.25;;
24751;SDS011;27246;52.376;4.628;2023-09-30T21:36:03;15.30;;;4.90;;
24751;SDS011;27246;52.376;4.628;2023-09-30T21:41:15;11.43;;;4.85;;
24751;SDS011;27246;52.376;4.628;2023-09-30T21:46:17;11.50;;;4.32;;
24751;SDS011;27246;52.376;4.628;2023-09-30T21:51:19;12.57;;;3.95;;
24751;SDS011;27246;52.376;4.628;2023-09-30T21:56:21;11.50;;;4.43;;
24751;SDS011;27246;52.376;4.628;2023-09-30T22:01:23;10.77;;;4.00;;
24751;SDS011;27246;52.376;4.628;2023-09-30T22:06:26;10.52;;;4.30;;
24751;SDS011;27246;52.376;4.628;2023-09-30T22:11:27;8.25;;;3.85;;
24751;SDS011;27246;52.376;4.628;2023-09-30T22:16:31;13.45;;;4.22;;
24751;SDS011;27246;52.376;4.628;2023-09-30T22:21:33;11.60;;;4.97;;
24751;SDS011;27246;52.376;4.628;2023-09-30T22:26:37;9.77;;;4.38;;
24751;SDS011;27246;52.376;4.628;2023-09-30T22:31:39;9.23;;;6.35;;
24751;SDS011;27246;52.376;4.628;2023-09-30T22:36:42;15.73;;;5.07;;
24751;SDS011;27246;52.376;4.628;2023-09-30T22:41:47;12.38;;;5.85;;
24751;SDS011;27246;52.376;4.628;2023-09-30T22:46:49;8.45;;;5.05;;
24751;SDS011;27246;52.376;4.628;2023-09-30T22:51:51;14.25;;;5.22;;
24751;SDS011;27246;52.376;4.628;2023-09-30T22:56:53;12.35;;;5.47;;
24751;SDS011;27246;52.376;4.628;2023-09-30T23:01:56;12.23;;;5.35;;
24751;SDS011;27246;52.376;4.628;2023-09-30T23:06:58;15.48;;;6.28;;
24751;SDS011;27246;52.376;4.628;2023-09-30T23:12:02;9.95;;;5.38;;
24751;SDS011;27246;52.376;4.628;2023-09-30T23:17:07;12.27;;;5.32;;
24751;SDS011;27246;52.376;4.628;2023-09-30T23:22:09;11.80;;;5.28;;
24751;SDS011;27246;52.376;4.628;2023-09-30T23:27:12;13.48;;;6.47;;
24751;SDS011;27246;52.376;4.628;2023-09-30T23:32:15;14.95;;;6.35;;
24751;SDS011;27246;52.376;4.628;2023-09-30T23:37:17;13.90;;;6.00;;
24751;SDS011;27246;52.376;4.628;2023-09-30T23:42:18;13.30;;;5.78;;
24751;SDS011;27246;52.376;4.628;2023-09-30T23:47:20;12.77;;;5.50;;
24751;SDS011;27246;52.376;4.628;2023-09-30T23:52:40;12.95;;;5.68;;
24751;SDS011;27246;52.376;4.628;2023-09-30T23:57:43;9.75;;;5.75;;
